Prairie Dog, Nebraska
Current Conditions -  °F | °C
As of 2:55 AM on Wednesday 28 Jan 2015 (Local Time) from KHDE Reporting Station
Clear Clear  
Wind Chill: 31°   Ceiling: Unl
Heat Index: 31°   Visibility: 10mi
Dew Point: 27°   Wind: 3mph
Humidity: 83%   Direction: 200°SSW
Pressure: 29.83"   Gusts: NA
Location:  40.1838°N, 99.3522°W
Report Text: KHDE 280855Z AUTO 20003KT 10SM CLR 00/M03 A2983 RMK AO2 T10041029
Loading
Personal Weather Stations






























Interactive Weather Map New forecast layout! Learn more

10-Day Weather Forecast

Advertisements
Track Severe Weather on mobile